createdAt,value
2019-05-01T00:00:28.420Z,101939.27
2019-05-01T00:03:22.671Z,101936.41
2019-05-01T00:05:55.627Z,101930.22
2019-05-01T00:08:24.695Z,101928.00
2019-05-01T00:10:53.935Z,101928.00
2019-05-01T00:13:23.158Z,101921.71
2019-05-01T00:15:52.461Z,101921.71
2019-05-01T00:18:21.450Z,101912.55
2019-05-01T00:20:50.484Z,101913.86
2019-05-01T00:23:19.534Z,101907.28
2019-05-01T00:25:48.595Z,101909.87
2019-05-01T00:28:18.758Z,101909.87
2019-05-01T00:30:47.819Z,101906.53
2019-05-01T00:33:16.824Z,101905.25
2019-05-01T00:35:45.763Z,101900.36
2019-05-01T00:38:14.807Z,101900.36
2019-05-01T00:40:43.771Z,101893.75
2019-05-01T00:43:12.769Z,101889.56
2019-05-01T00:45:41.706Z,101886.73
2019-05-01T00:48:10.702Z,101886.73
2019-05-01T00:50:39.678Z,101887.02
2019-05-01T00:53:08.629Z,101885.86
2019-05-01T00:56:08.985Z,101880.72
2019-05-01T00:58:56.980Z,101880.58
2019-05-01T01:01:50.794Z,101877.66
2019-05-01T01:04:20.565Z,101877.66
2019-05-01T01:06:49.634Z,101875.09
2019-05-01T01:09:19.139Z,101865.50
2019-05-01T01:11:48.199Z,101862.56
2019-05-01T01:14:17.163Z,101866.78
2019-05-01T01:16:46.216Z,101860.48
2019-05-01T01:19:15.374Z,101860.57
2019-05-01T01:21:44.360Z,101860.57
2019-05-01T01:24:13.491Z,101851.49
2019-05-01T01:26:42.594Z,101844.83
2019-05-01T01:29:11.735Z,101849.09
2019-05-01T01:31:40.718Z,101844.30
2019-05-01T01:34:09.844Z,101836.08
2019-05-01T01:36:38.819Z,101836.08
2019-05-01T01:39:08.006Z,101839.54
2019-05-01T01:41:37.553Z,101841.39
2019-05-01T01:44:26.459Z,101841.39
2019-05-01T01:46:56.417Z,101837.59
2019-05-01T01:49:25.456Z,101836.67
2019-05-01T01:51:54.585Z,101836.67
2019-05-01T01:54:23.721Z,101821.62
2019-05-01T01:56:52.844Z,101821.62
2019-05-01T01:59:23.780Z,101820.25
2019-05-01T02:02:08.308Z,101827.59
2019-05-01T02:05:14.518Z,101818.72
2019-05-01T02:07:44.353Z,101818.72
2019-05-01T02:10:13.990Z,101826.32
2019-05-01T02:12:43.580Z,101820.36
2019-05-01T02:15:13.899Z,101823.36
2019-05-01T02:17:42.953Z,101817.19
2019-05-01T02:20:12.286Z,101817.19
2019-05-01T02:22:41.616Z,101815.28
2019-05-01T02:25:12.116Z,101815.63
2019-05-01T02:28:00.107Z,101809.17
2019-05-01T02:30:29.446Z,101811.44
2019-05-01T02:32:59.669Z,101803.31
2019-05-01T02:35:30.446Z,101803.31
2019-05-01T02:38:01.988Z,101811.86
2019-05-01T02:40:50.469Z,101810.59
2019-05-01T02:43:21.290Z,101807.80
2019-05-01T02:45:55.847Z,101806.11
2019-05-01T02:48:27.046Z,101806.11
2019-05-01T02:51:00.085Z,101811.28
2019-05-01T02:53:30.927Z,101811.28
2019-05-01T02:56:32.226Z,101808.56
2019-05-01T02:59:02.970Z,101801.85
2019-05-01T03:01:46.295Z,101801.85
2019-05-01T03:04:05.650Z,101806.52
2019-05-01T03:06:37.274Z,101806.52
2019-05-01T03:09:08.833Z,101808.01
2019-05-01T03:11:41.096Z,101805.77
2019-05-01T03:14:15.757Z,101805.77
2019-05-01T03:16:46.704Z,101810.59
2019-05-01T03:19:22.874Z,101810.88
2019-05-01T03:22:07.405Z,101812.89
2019-05-01T03:24:36.648Z,101801.58
2019-05-01T03:27:05.753Z,101797.93
2019-05-01T03:29:35.112Z,101800.28
2019-05-01T03:32:16.610Z,101800.28
2019-05-01T03:34:35.167Z,101791.12
2019-05-01T03:37:04.549Z,101791.55
2019-05-01T03:39:33.685Z,101789.85
2019-05-01T03:42:02.837Z,101789.58
2019-05-01T03:44:31.968Z,101790.05
2019-05-01T03:47:01.791Z,101787.32
2019-05-01T03:49:30.899Z,101787.32
2019-05-01T03:52:00.031Z,101779.09
2019-05-01T03:54:29.697Z,101782.49
2019-05-01T03:56:59.022Z,101782.49
2019-05-01T03:59:28.648Z,101780.43
2019-05-01T04:02:04.903Z,101780.43
2019-05-01T04:04:34.032Z,101787.03
2019-05-01T04:07:03.236Z,101783.30
2019-05-01T04:09:32.392Z,101776.31
2019-05-01T04:12:02.240Z,101776.31
2019-05-01T04:14:31.619Z,101776.63
2019-05-01T04:17:13.093Z,101772.73
2019-05-01T04:19:42.331Z,101772.73
2019-05-01T04:22:13.059Z,101772.27
2019-05-01T04:24:44.262Z,101768.61
2019-05-01T04:27:19.582Z,101768.61
2019-05-01T04:29:55.771Z,101768.98
2019-05-01T04:32:27.994Z,101766.97
2019-05-01T04:35:23.431Z,101766.97
2019-05-01T04:37:54.335Z,101774.27
2019-05-01T04:40:23.673Z,101775.22
2019-05-01T04:42:52.767Z,101774.94
2019-05-01T04:45:24.850Z,101777.59
2019-05-01T04:47:54.083Z,101777.59
2019-05-01T04:50:23.306Z,101777.01
2019-05-01T04:52:53.152Z,101771.41
2019-05-01T04:55:23.754Z,101771.41
2019-05-01T04:57:52.965Z,101781.23
2019-05-01T05:00:22.076Z,101778.12
2019-05-01T05:03:05.512Z,101776.92
2019-05-01T05:05:35.954Z,101785.51
2019-05-01T05:08:05.069Z,101774.54
2019-05-01T05:10:35.099Z,101774.54
2019-05-01T05:13:10.725Z,101784.31
2019-05-01T05:16:00.329Z,101773.77
2019-05-01T05:18:32.079Z,101778.42
2019-05-01T05:21:01.741Z,101772.42
2019-05-01T05:23:31.564Z,101770.98
2019-05-01T05:26:01.172Z,101772.48
2019-05-01T05:28:31.444Z,101774.80
2019-05-01T05:31:01.147Z,101774.80
2019-05-01T05:33:34.181Z,101776.09
2019-05-01T05:36:06.703Z,101773.09
2019-05-01T05:39:00.399Z,101773.09
2019-05-01T05:41:31.454Z,101777.72
2019-05-01T05:44:01.945Z,101782.33
2019-05-01T05:46:31.398Z,101782.33
2019-05-01T05:49:00.650Z,101772.43
2019-05-01T05:51:50.410Z,101777.54
2019-05-01T05:54:48.973Z,101781.83
2019-05-01T05:57:25.704Z,101777.27
2019-05-01T06:00:00.842Z,101777.27
2019-05-01T06:02:39.744Z,101777.47
2019-05-01T06:05:30.973Z,101781.08
2019-05-01T06:08:14.962Z,101776.69
2019-05-01T06:11:12.480Z,101768.73
2019-05-01T06:14:00.509Z,101774.76
2019-05-01T06:17:06.295Z,101771.72
2019-05-01T06:19:45.892Z,101775.98
2019-05-01T06:22:22.352Z,101775.98
2019-05-01T06:24:57.610Z,101768.02
2019-05-01T06:27:27.438Z,101766.77
2019-05-01T06:29:56.744Z,101766.77
2019-05-01T06:32:28.882Z,101763.61
2019-05-01T06:34:58.529Z,101763.61
2019-05-01T06:38:00.769Z,101768.20
2019-05-01T06:40:39.992Z,101764.84
2019-05-01T06:43:15.686Z,101760.59
2019-05-01T06:45:51.651Z,101756.48
2019-05-01T06:48:22.201Z,101756.48
2019-05-01T06:50:56.459Z,101759.27
2019-05-01T06:53:26.589Z,101759.27
2019-05-01T06:55:55.804Z,101759.49
2019-05-01T06:58:25.075Z,101759.49
2019-05-01T07:00:55.639Z,101760.51
2019-05-01T07:03:25.379Z,101754.56
2019-05-01T07:05:56.225Z,101762.15
2019-05-01T07:08:29.558Z,101755.27
2019-05-01T07:10:56.568Z,101759.76
2019-05-01T07:13:25.716Z,101759.76
2019-05-01T07:15:58.714Z,101757.31
2019-05-01T07:18:29.085Z,101756.53
2019-05-01T07:20:56.469Z,101762.96
2019-05-01T07:23:25.807Z,101762.96
2019-05-01T07:25:55.459Z,101754.08
2019-05-01T07:28:29.065Z,101751.78
2019-05-01T07:31:05.183Z,101751.78
2019-05-01T07:33:33.601Z,101743.27
2019-05-01T07:36:11.833Z,101746.59
2019-05-01T07:38:38.849Z,101746.59
2019-05-01T07:41:09.004Z,101744.31
2019-05-01T07:43:46.079Z,101751.75
2019-05-01T07:46:25.515Z,101752.05
2019-05-01T07:48:55.174Z,101744.16
2019-05-01T07:51:24.411Z,101749.72
2019-05-01T07:53:53.632Z,101747.70
2019-05-01T07:56:28.255Z,101744.43
2019-05-01T07:58:55.659Z,101743.66
2019-05-01T08:01:54.520Z,101744.12
2019-05-01T08:04:35.865Z,101749.41
2019-05-01T08:06:57.226Z,101749.41
2019-05-01T08:09:25.289Z,101742.05
2019-05-01T08:11:54.426Z,101743.22
2019-05-01T08:14:23.427Z,101743.22
2019-05-01T08:16:52.511Z,101744.39
2019-05-01T08:19:39.382Z,101734.11
2019-05-01T08:22:11.696Z,101734.11
2019-05-01T08:24:42.278Z,101706.80
2019-05-01T08:27:20.285Z,101733.09
2019-05-01T08:29:59.258Z,101730.06
2019-05-01T08:32:45.095Z,101734.92
2019-05-01T08:35:16.538Z,101736.93
2019-05-01T08:37:45.498Z,101732.84
2019-05-01T08:40:15.971Z,101731.95
2019-05-01T08:42:46.907Z,101731.95
2019-05-01T08:45:35.836Z,101741.78
2019-05-01T08:48:12.783Z,101737.78
2019-05-01T08:50:41.854Z,101731.19
2019-05-01T08:53:12.488Z,101736.62
2019-05-01T08:55:45.157Z,101739.20
2019-05-01T08:58:14.106Z,101738.86
2019-05-01T09:00:43.180Z,101738.86
2019-05-01T09:03:18.441Z,101734.31
2019-05-01T09:05:44.502Z,101739.83
2019-05-01T09:08:13.540Z,101733.74
2019-05-01T09:10:42.529Z,101727.62
2019-05-01T09:13:11.584Z,101732.28
2019-05-01T09:15:43.825Z,101730.95
2019-05-01T09:18:11.332Z,101732.28
2019-05-01T09:20:41.542Z,101732.28
2019-05-01T09:23:14.295Z,101727.89
2019-05-01T09:25:56.385Z,101727.89
2019-05-01T09:28:30.932Z,101721.20
2019-05-01T09:31:03.412Z,101721.20
2019-05-01T09:33:32.770Z,101720.63
2019-05-01T09:36:01.886Z,101720.27
2019-05-01T09:38:31.107Z,101721.24
2019-05-01T09:41:00.163Z,101721.24
2019-05-01T09:43:30.940Z,101720.77
2019-05-01T09:46:00.135Z,101719.73
2019-05-01T09:48:29.242Z,101719.73
2019-05-01T09:51:07.006Z,101724.47
2019-05-01T09:53:57.862Z,101716.84
2019-05-01T09:56:26.954Z,101716.84
2019-05-01T09:58:55.983Z,101717.23
2019-05-01T10:01:31.721Z,101710.81
2019-05-01T10:03:56.470Z,101716.94
2019-05-01T10:06:25.543Z,101715.41
2019-05-01T10:08:54.623Z,101715.41
2019-05-01T10:11:23.686Z,101708.66
2019-05-01T10:13:53.753Z,101708.66
2019-05-01T10:16:23.473Z,101705.61
2019-05-01T10:18:52.441Z,101703.11
2019-05-01T10:21:22.506Z,101701.66
2019-05-01T10:23:52.907Z,101701.66
2019-05-01T10:26:24.255Z,101698.23
2019-05-01T10:29:14.273Z,101681.44
2019-05-01T10:32:00.928Z,101681.44
2019-05-01T10:34:38.696Z,101694.22
2019-05-01T10:37:07.585Z,101694.22
2019-05-01T10:39:36.641Z,101685.70
2019-05-01T10:42:05.685Z,101681.48
2019-05-01T10:44:34.690Z,101679.44
2019-05-01T10:47:03.671Z,101677.14
2019-05-01T10:49:33.700Z,101678.77
2019-05-01T10:52:13.610Z,101676.73
2019-05-01T10:54:33.505Z,101667.89
2019-05-01T10:57:03.340Z,101667.89
2019-05-01T10:59:34.307Z,101669.97
2019-05-01T11:02:05.064Z,101666.10
2019-05-01T11:04:34.115Z,101658.11
2019-05-01T11:07:03.258Z,101655.84
2019-05-01T11:09:32.275Z,101652.87
2019-05-01T11:12:01.285Z,101652.87
2019-05-01T11:14:30.356Z,101647.68
2019-05-01T11:16:59.351Z,101648.45
2019-05-01T11:19:29.773Z,101648.46
2019-05-01T11:21:58.847Z,101642.28
2019-05-01T11:24:28.011Z,101636.78
2019-05-01T11:26:57.020Z,101632.91
2019-05-01T11:29:25.990Z,101643.25
2019-05-01T11:32:14.902Z,101644.08
2019-05-01T11:34:58.798Z,101640.36
2019-05-01T11:37:43.118Z,101636.30
2019-05-01T11:40:17.995Z,101630.37
2019-05-01T11:42:47.081Z,101633.80
2019-05-01T11:45:16.299Z,101629.14
2019-05-01T11:47:45.309Z,101605.64
2019-05-01T11:50:14.447Z,101625.95
2019-05-01T11:52:43.479Z,101626.67
2019-05-01T11:55:12.630Z,101625.58
2019-05-01T11:57:41.775Z,101625.58
2019-05-01T12:00:12.453Z,101613.94
2019-05-01T12:02:41.447Z,101613.94
2019-05-01T12:05:10.698Z,101617.48
2019-05-01T12:07:39.692Z,101615.58
2019-05-01T12:10:09.033Z,101615.58
2019-05-01T12:12:38.082Z,101618.44
2019-05-01T12:15:08.090Z,101616.01
2019-05-01T12:17:42.924Z,101616.01
2019-05-01T12:20:12.604Z,101608.03
2019-05-01T12:22:41.633Z,101614.08
2019-05-01T12:25:10.958Z,101614.08
2019-05-01T12:27:40.050Z,101605.78
2019-05-01T12:30:09.475Z,101595.55
2019-05-01T12:32:38.549Z,101598.09
2019-05-01T12:35:08.270Z,101598.09
2019-05-01T12:37:41.761Z,101590.58
2019-05-01T12:40:13.276Z,101587.14
2019-05-01T12:42:42.345Z,101588.44
2019-05-01T12:45:12.814Z,101583.08
2019-05-01T12:47:46.966Z,101583.08
2019-05-01T12:50:17.298Z,101577.91
2019-05-01T12:53:09.883Z,101584.26
2019-05-01T12:55:54.063Z,101584.56
2019-05-01T12:58:23.045Z,101581.48
2019-05-01T13:00:53.613Z,101581.48
2019-05-01T13:03:22.680Z,101579.52
2019-05-01T13:05:52.812Z,101575.94
2019-05-01T13:08:21.944Z,101567.70
2019-05-01T13:10:51.073Z,101563.38
2019-05-01T13:13:20.172Z,101572.53
2019-05-01T13:15:49.296Z,101564.75
2019-05-01T13:18:18.346Z,101564.75
2019-05-01T13:20:47.340Z,101564.34
2019-05-01T13:23:16.356Z,101556.47
2019-05-01T13:25:48.421Z,101550.83
2019-05-01T13:28:42.393Z,101565.59
2019-05-01T13:31:18.908Z,101556.33
2019-05-01T13:33:47.956Z,101552.95
2019-05-01T13:36:17.014Z,101530.55
2019-05-01T13:38:46.126Z,101537.57
2019-05-01T13:41:15.281Z,101537.96
2019-05-01T13:43:44.421Z,101537.96
2019-05-01T13:46:13.432Z,101531.61
2019-05-01T13:48:42.393Z,101529.26
2019-05-01T13:51:11.484Z,101529.26
2019-05-01T13:53:42.467Z,101524.09
2019-05-01T13:56:11.458Z,101515.97
2019-05-01T13:58:40.571Z,101525.58
2019-05-01T14:01:09.809Z,101519.39
2019-05-01T14:03:38.872Z,101507.53
2019-05-01T14:06:08.337Z,101506.63
2019-05-01T14:08:37.328Z,101510.44
2019-05-01T14:11:06.448Z,101506.72
2019-05-01T14:13:35.539Z,101507.61
2019-05-01T14:16:04.689Z,101503.28
2019-05-01T14:18:33.817Z,101494.05
2019-05-01T14:21:34.093Z,101496.45
2019-05-01T14:24:09.991Z,101496.45
2019-05-01T14:26:38.983Z,101490.05
2019-05-01T14:29:08.044Z,101493.64
2019-05-01T14:31:37.037Z,101493.64
2019-05-01T14:34:06.204Z,101476.39
2019-05-01T14:36:35.244Z,101485.28
2019-05-01T14:39:06.266Z,101481.16
2019-05-01T14:41:35.402Z,101478.42
2019-05-01T14:44:05.702Z,101477.69
2019-05-01T14:46:34.904Z,101477.62
2019-05-01T14:49:04.386Z,101472.11
2019-05-01T14:51:33.528Z,101465.14
2019-05-01T14:54:02.660Z,101463.63
2019-05-01T14:56:33.735Z,101474.89
2019-05-01T14:59:02.834Z,101465.08
2019-05-01T15:01:31.842Z,101465.08
2019-05-01T15:04:00.944Z,101461.48
2019-05-01T15:06:30.126Z,101458.08
2019-05-01T15:08:59.254Z,101458.08
2019-05-01T15:11:28.284Z,101457.98
2019-05-01T15:14:11.202Z,101462.70
2019-05-01T15:16:50.849Z,101466.43
2019-05-01T15:19:25.805Z,101466.43
2019-05-01T15:21:54.810Z,101459.55
2019-05-01T15:24:23.920Z,101453.43
2019-05-01T15:26:53.069Z,101455.95
2019-05-01T15:29:23.576Z,101455.61
2019-05-01T15:31:52.595Z,101444.06
2019-05-01T15:34:21.716Z,101444.06
2019-05-01T15:36:50.716Z,101446.77
2019-05-01T15:39:31.179Z,101456.73
2019-05-01T15:42:14.359Z,101459.36
2019-05-01T15:44:43.643Z,101441.00
2019-05-01T15:47:12.767Z,101442.70
2019-05-01T15:49:42.980Z,101445.76
2019-05-01T15:52:12.176Z,101448.39
2019-05-01T15:54:41.264Z,101444.97
2019-05-01T15:57:10.392Z,101443.72
2019-05-01T15:59:39.468Z,101435.28
2019-05-01T16:02:08.607Z,101430.78
2019-05-01T16:04:37.649Z,101431.12
2019-05-01T16:07:06.714Z,101436.27
2019-05-01T16:09:35.825Z,101436.27
2019-05-01T16:12:19.949Z,101438.09
2019-05-01T16:14:52.653Z,101432.07
2019-05-01T16:17:21.715Z,101435.00
2019-05-01T16:19:52.032Z,101435.02
2019-05-01T16:22:21.111Z,101431.07
2019-05-01T16:24:50.166Z,101426.83
2019-05-01T16:27:19.405Z,101425.59
2019-05-01T16:29:48.495Z,101430.67
2019-05-01T16:32:17.603Z,101429.03
2019-05-01T16:34:46.760Z,101427.70
2019-05-01T16:37:15.739Z,101419.59
2019-05-01T16:40:02.322Z,101420.30
2019-05-01T16:42:39.610Z,101428.26
2019-05-01T16:45:09.290Z,101425.61
2019-05-01T16:47:38.390Z,101421.53
2019-05-01T16:50:09.710Z,101418.95
2019-05-01T16:52:39.753Z,101414.44
2019-05-01T16:55:09.313Z,101416.13
2019-05-01T16:57:38.437Z,101410.75
2019-05-01T17:00:10.367Z,101413.30
2019-05-01T17:03:11.857Z,101407.56
2019-05-01T17:05:59.860Z,101411.67
2019-05-01T17:08:51.982Z,101401.47
2019-05-01T17:11:25.908Z,101406.82
2019-05-01T17:13:55.054Z,101400.92
2019-05-01T17:16:24.146Z,101396.16
2019-05-01T17:18:54.546Z,101395.45
2019-05-01T17:21:23.629Z,101395.45
2019-05-01T17:23:52.686Z,101392.23
2019-05-01T17:26:21.872Z,101390.95
2019-05-01T17:28:51.949Z,101390.95
2019-05-01T17:31:21.087Z,101392.98
2019-05-01T17:33:50.799Z,101390.33
2019-05-01T17:36:21.080Z,101387.45
2019-05-01T17:38:50.161Z,101393.78
2019-05-01T17:41:22.615Z,101396.53
2019-05-01T17:43:50.618Z,101396.53
2019-05-01T17:46:19.688Z,101395.71
2019-05-01T17:48:48.844Z,101391.32
2019-05-01T17:51:19.777Z,101387.97
2019-05-01T17:53:48.771Z,101387.97
2019-05-01T17:56:23.493Z,101389.36
2019-05-01T17:58:48.630Z,101390.72
2019-05-01T18:01:35.392Z,101391.57
2019-05-01T18:04:14.881Z,101393.47
2019-05-01T18:06:46.637Z,101389.76
2019-05-01T18:09:17.681Z,101389.76
2019-05-01T18:11:50.207Z,101387.33
2019-05-01T18:14:17.667Z,101389.19
2019-05-01T18:16:46.703Z,101389.19
2019-05-01T18:19:15.674Z,101384.57
2019-05-01T18:21:51.777Z,101387.13
2019-05-01T18:24:47.341Z,101387.13
2019-05-01T18:27:44.244Z,101392.92
2019-05-01T18:30:20.054Z,101390.45
2019-05-01T18:32:49.401Z,101393.66
2019-05-01T18:35:17.619Z,101393.66
2019-05-01T18:37:57.987Z,101388.20
2019-05-01T18:40:39.349Z,101394.14
2019-05-01T18:43:08.502Z,101394.14
2019-05-01T18:45:49.559Z,101393.02
2019-05-01T18:48:18.826Z,101390.66
2019-05-01T18:50:49.621Z,101390.66
2019-05-01T18:53:18.955Z,101392.12
2019-05-01T18:55:48.123Z,101392.12
2019-05-01T18:58:17.235Z,101392.26
2019-05-01T19:00:46.380Z,101389.64
2019-05-01T19:03:15.430Z,101389.64
2019-05-01T19:05:46.896Z,101394.30
2019-05-01T19:08:15.321Z,101399.20
2019-05-01T19:10:44.423Z,101391.16
2019-05-01T19:13:14.045Z,101391.16
2019-05-01T19:15:43.153Z,101391.38
2019-05-01T19:18:12.328Z,101395.84
2019-05-01T19:20:41.298Z,101396.85
2019-05-01T19:23:10.395Z,101394.53
2019-05-01T19:25:39.529Z,101394.53
2019-05-01T19:28:09.491Z,101397.82
2019-05-01T19:30:38.615Z,101395.87
2019-05-01T19:33:08.164Z,101394.83
2019-05-01T19:35:37.287Z,101394.60
2019-05-01T19:38:07.095Z,101395.48
2019-05-01T19:40:36.055Z,101387.09
2019-05-01T19:43:05.227Z,101382.40
2019-05-01T19:45:34.299Z,101382.40
2019-05-01T19:48:03.456Z,101385.94
2019-05-01T19:50:32.588Z,101379.74
2019-05-01T19:53:01.608Z,101379.74
2019-05-01T19:55:30.727Z,101381.56
2019-05-01T19:57:59.732Z,101378.89
2019-05-01T20:00:53.899Z,101382.27
2019-05-01T20:03:24.735Z,101375.03
2019-05-01T20:05:53.955Z,101380.37
2019-05-01T20:08:23.115Z,101380.37
2019-05-01T20:10:52.117Z,101374.36
2019-05-01T20:13:21.158Z,101374.31
2019-05-01T20:15:50.333Z,101380.12
2019-05-01T20:18:19.384Z,101380.12
2019-05-01T20:20:48.511Z,101373.39
2019-05-01T20:23:17.716Z,101373.39
2019-05-01T20:25:50.954Z,101385.15
2019-05-01T20:28:19.942Z,101372.73
2019-05-01T20:30:49.663Z,101372.73
2019-05-01T20:33:20.036Z,101372.40
2019-05-01T20:35:49.101Z,101372.40
2019-05-01T20:38:18.188Z,101379.14
2019-05-01T20:40:47.255Z,101373.03
2019-05-01T20:43:16.409Z,101373.30
2019-05-01T20:45:49.502Z,101373.30
2019-05-01T20:48:18.438Z,101363.80
2019-05-01T20:50:46.796Z,101366.73
2019-05-01T20:53:15.842Z,101365.52
2019-05-01T20:55:50.507Z,101365.52
2019-05-01T20:58:20.574Z,101364.38
2019-05-01T21:00:56.970Z,101367.14
2019-05-01T21:03:25.949Z,101367.14
2019-05-01T21:06:07.735Z,101368.81
2019-05-01T21:08:56.387Z,101359.10
2019-05-01T21:11:31.383Z,101356.84
2019-05-01T21:14:16.763Z,101356.84
2019-05-01T21:16:32.798Z,101354.88
2019-05-01T21:19:02.023Z,101352.70
2019-05-01T21:21:30.994Z,101347.42
2019-05-01T21:24:00.054Z,101342.19
2019-05-01T21:26:29.154Z,101340.03
2019-05-01T21:28:58.197Z,101339.16
2019-05-01T21:31:27.225Z,101342.44
2019-05-01T21:33:56.201Z,101338.77
2019-05-01T21:36:25.251Z,101338.77
2019-05-01T21:38:54.249Z,101342.26
2019-05-01T21:41:23.238Z,101332.62
2019-05-01T21:43:52.952Z,101326.94
2019-05-01T21:46:22.725Z,101326.94
2019-05-01T21:48:53.592Z,101331.00
2019-05-01T21:51:22.866Z,101323.02
2019-05-01T21:53:52.942Z,101323.67
2019-05-01T21:56:22.027Z,101325.81
2019-05-01T21:58:51.015Z,101325.81
2019-05-01T22:01:20.155Z,101324.02
2019-05-01T22:03:52.518Z,101322.45
2019-05-01T22:06:20.121Z,101323.62
2019-05-01T22:08:49.236Z,101323.62
2019-05-01T22:11:18.306Z,101314.45
2019-05-01T22:13:47.343Z,101317.28
2019-05-01T22:16:23.714Z,101312.20
2019-05-01T22:19:01.063Z,101313.38
2019-05-01T22:21:41.320Z,101310.94
2019-05-01T22:24:18.442Z,101310.98
2019-05-01T22:26:57.658Z,101310.98
2019-05-01T22:29:32.412Z,101308.95
2019-05-01T22:32:10.016Z,101304.89
2019-05-01T22:34:53.420Z,101299.38
2019-05-01T22:37:22.523Z,101302.50
2019-05-01T22:39:56.663Z,101295.55
2019-05-01T22:42:25.702Z,101304.37
2019-05-01T22:44:54.767Z,101304.37
2019-05-01T22:47:23.784Z,101296.80
2019-05-01T22:49:53.950Z,101296.80
2019-05-01T22:52:22.989Z,101293.92
2019-05-01T22:54:51.936Z,101292.83
2019-05-01T22:57:21.353Z,101289.09
2019-05-01T22:59:50.305Z,101282.83
2019-05-01T23:02:28.464Z,101286.73
2019-05-01T23:04:57.501Z,101286.33
2019-05-01T23:07:26.584Z,101287.32
2019-05-01T23:09:59.253Z,101287.32
2019-05-01T23:12:26.400Z,101281.16
2019-05-01T23:14:55.494Z,101278.47
2019-05-01T23:17:34.911Z,101278.47
2019-05-01T23:20:06.058Z,101272.00
2019-05-01T23:22:35.121Z,101271.05
2019-05-01T23:25:04.235Z,101271.05
2019-05-01T23:27:34.620Z,101269.52
2019-05-01T23:30:03.803Z,101269.52
2019-05-01T23:32:32.789Z,101264.37
2019-05-01T23:35:01.744Z,101266.44
2019-05-01T23:37:30.683Z,101257.57
2019-05-01T23:39:59.742Z,101264.03
2019-05-01T23:42:28.801Z,101254.66
2019-05-01T23:44:57.777Z,101254.66
2019-05-01T23:47:26.767Z,101260.39
2019-05-01T23:49:55.730Z,101246.31
2019-05-01T23:52:24.741Z,101246.11
2019-05-01T23:54:53.767Z,101246.11
2019-05-01T23:57:22.749Z,101247.87
2019-05-01T23:59:51.808Z,101253.69
